sensor_id;sensor_type;location;lat;lon;timestamp;P1;durP1;ratioP1;P2;durP2;ratioP2
55148;SDS011;49539;48.160;11.530;2023-08-12T00:01:15;6.93;;;3.60;;
55148;SDS011;49539;48.160;11.530;2023-08-12T00:03:41;6.05;;;3.30;;
55148;SDS011;49539;48.160;11.530;2023-08-12T00:06:07;10.45;;;4.32;;
55148;SDS011;49539;48.160;11.530;2023-08-12T00:08:32;5.75;;;3.67;;
55148;SDS011;49539;48.160;11.530;2023-08-12T00:10:58;6.50;;;4.18;;
55148;SDS011;49539;48.160;11.530;2023-08-12T00:13:23;5.68;;;3.65;;
55148;SDS011;49539;48.160;11.530;2023-08-12T00:15:48;5.43;;;3.03;;
55148;SDS011;49539;48.160;11.530;2023-08-12T00:18:14;5.28;;;3.65;;
55148;SDS011;49539;48.160;11.530;2023-08-12T00:20:40;5.22;;;3.47;;
55148;SDS011;49539;48.160;11.530;2023-08-12T00:23:07;5.93;;;3.25;;
55148;SDS011;49539;48.160;11.530;2023-08-12T00:25:33;5.50;;;3.60;;
55148;SDS011;49539;48.160;11.530;2023-08-12T00:27:58;7.43;;;3.95;;
55148;SDS011;49539;48.160;11.530;2023-08-12T00:30:23;4.60;;;3.28;;
55148;SDS011;49539;48.160;11.530;2023-08-12T00:32:49;5.67;;;3.13;;
55148;SDS011;49539;48.160;11.530;2023-08-12T00:35:14;10.40;;;4.57;;
55148;SDS011;49539;48.160;11.530;2023-08-12T00:37:39;5.70;;;3.38;;
55148;SDS011;49539;48.160;11.530;2023-08-12T00:40:05;4.65;;;3.20;;
55148;SDS011;49539;48.160;11.530;2023-08-12T00:42:31;6.95;;;4.65;;
55148;SDS011;49539;48.160;11.530;2023-08-12T00:44:57;4.65;;;2.97;;
55148;SDS011;49539;48.160;11.530;2023-08-12T00:47:22;5.68;;;3.85;;
55148;SDS011;49539;48.160;11.530;2023-08-12T00:49:47;7.53;;;4.22;;
55148;SDS011;49539;48.160;11.530;2023-08-12T00:52:13;7.95;;;4.00;;
55148;SDS011;49539;48.160;11.530;2023-08-12T00:54:39;5.03;;;3.35;;
55148;SDS011;49539;48.160;11.530;2023-08-12T00:57:04;6.70;;;4.10;;
55148;SDS011;49539;48.160;11.530;2023-08-12T00:59:31;6.45;;;3.67;;
55148;SDS011;49539;48.160;11.530;2023-08-12T01:01:57;7.25;;;3.90;;
55148;SDS011;49539;48.160;11.530;2023-08-12T01:04:23;5.90;;;3.80;;
55148;SDS011;49539;48.160;11.530;2023-08-12T01:06:48;6.13;;;3.43;;
55148;SDS011;49539;48.160;11.530;2023-08-12T01:09:14;5.95;;;3.28;;
55148;SDS011;49539;48.160;11.530;2023-08-12T01:11:44;9.05;;;4.20;;
55148;SDS011;49539;48.160;11.530;2023-08-12T01:14:13;5.87;;;3.70;;
55148;SDS011;49539;48.160;11.530;2023-08-12T01:16:40;6.72;;;4.05;;
55148;SDS011;49539;48.160;11.530;2023-08-12T01:19:09;6.80;;;3.53;;
55148;SDS011;49539;48.160;11.530;2023-08-12T01:21:35;6.47;;;3.92;;
55148;SDS011;49539;48.160;11.530;2023-08-12T01:24:01;6.60;;;4.40;;
55148;SDS011;49539;48.160;11.530;2023-08-12T01:26:27;7.75;;;4.88;;
55148;SDS011;49539;48.160;11.530;2023-08-12T01:28:52;5.63;;;3.37;;
55148;SDS011;49539;48.160;11.530;2023-08-12T01:33:44;6.65;;;3.78;;
55148;SDS011;49539;48.160;11.530;2023-08-12T01:36:18;5.85;;;4.00;;
55148;SDS011;49539;48.160;11.530;2023-08-12T01:38:44;6.35;;;4.57;;
55148;SDS011;49539;48.160;11.530;2023-08-12T01:41:11;7.25;;;4.15;;
55148;SDS011;49539;48.160;11.530;2023-08-12T01:43:37;6.82;;;4.38;;
55148;SDS011;49539;48.160;11.530;2023-08-12T01:46:04;6.60;;;4.20;;
55148;SDS011;49539;48.160;11.530;2023-08-12T01:48:29;7.63;;;4.30;;
55148;SDS011;49539;48.160;11.530;2023-08-12T01:50:54;6.20;;;4.35;;
55148;SDS011;49539;48.160;11.530;2023-08-12T01:53:19;9.35;;;4.53;;
55148;SDS011;49539;48.160;11.530;2023-08-12T01:55:45;7.93;;;4.93;;
55148;SDS011;49539;48.160;11.530;2023-08-12T01:58:10;7.65;;;4.22;;
55148;SDS011;49539;48.160;11.530;2023-08-12T02:00:35;6.45;;;4.03;;
55148;SDS011;49539;48.160;11.530;2023-08-12T02:03:01;7.28;;;4.60;;
55148;SDS011;49539;48.160;11.530;2023-08-12T02:05:26;7.03;;;4.43;;
55148;SDS011;49539;48.160;11.530;2023-08-12T02:07:51;8.68;;;4.55;;
55148;SDS011;49539;48.160;11.530;2023-08-12T02:10:17;4.93;;;3.87;;
55148;SDS011;49539;48.160;11.530;2023-08-12T02:12:42;7.40;;;4.57;;
55148;SDS011;49539;48.160;11.530;2023-08-12T02:15:07;7.68;;;4.57;;
55148;SDS011;49539;48.160;11.530;2023-08-12T02:17:33;6.65;;;4.40;;
55148;SDS011;49539;48.160;11.530;2023-08-12T02:19:58;7.50;;;4.60;;
55148;SDS011;49539;48.160;11.530;2023-08-12T02:22:23;6.60;;;3.53;;
55148;SDS011;49539;48.160;11.530;2023-08-12T02:24:49;7.95;;;4.43;;
55148;SDS011;49539;48.160;11.530;2023-08-12T02:27:15;6.20;;;4.20;;
55148;SDS011;49539;48.160;11.530;2023-08-12T02:29:40;8.27;;;4.40;;
55148;SDS011;49539;48.160;11.530;2023-08-12T02:32:05;6.77;;;4.70;;
55148;SDS011;49539;48.160;11.530;2023-08-12T02:34:31;8.57;;;4.18;;
55148;SDS011;49539;48.160;11.530;2023-08-12T02:36:57;7.25;;;4.57;;
55148;SDS011;49539;48.160;11.530;2023-08-12T02:39:22;8.52;;;4.40;;
55148;SDS011;49539;48.160;11.530;2023-08-12T02:41:47;7.45;;;4.40;;
55148;SDS011;49539;48.160;11.530;2023-08-12T02:44:13;7.63;;;4.32;;
55148;SDS011;49539;48.160;11.530;2023-08-12T02:46:38;7.50;;;4.38;;
55148;SDS011;49539;48.160;11.530;2023-08-12T02:49:03;6.15;;;3.92;;
55148;SDS011;49539;48.160;11.530;2023-08-12T02:51:29;11.90;;;4.15;;
55148;SDS011;49539;48.160;11.530;2023-08-12T02:53:54;8.50;;;4.78;;
55148;SDS011;49539;48.160;11.530;2023-08-12T02:56:19;7.20;;;4.30;;
55148;SDS011;49539;48.160;11.530;2023-08-12T02:58:45;7.68;;;4.32;;
55148;SDS011;49539;48.160;11.530;2023-08-12T03:01:10;7.20;;;4.13;;
55148;SDS011;49539;48.160;11.530;2023-08-12T03:03:35;8.00;;;4.43;;
55148;SDS011;49539;48.160;11.530;2023-08-12T03:06:00;7.20;;;4.67;;
55148;SDS011;49539;48.160;11.530;2023-08-12T03:08:26;7.25;;;4.40;;
55148;SDS011;49539;48.160;11.530;2023-08-12T03:10:57;7.55;;;4.20;;
55148;SDS011;49539;48.160;11.530;2023-08-12T03:13:23;8.07;;;4.60;;
55148;SDS011;49539;48.160;11.530;2023-08-12T03:15:49;7.80;;;4.47;;
55148;SDS011;49539;48.160;11.530;2023-08-12T03:18:14;7.97;;;4.50;;
55148;SDS011;49539;48.160;11.530;2023-08-12T03:20:39;7.83;;;5.30;;
55148;SDS011;49539;48.160;11.530;2023-08-12T03:23:05;6.70;;;4.38;;
55148;SDS011;49539;48.160;11.530;2023-08-12T03:25:30;7.23;;;4.77;;
55148;SDS011;49539;48.160;11.530;2023-08-12T03:27:55;8.23;;;4.53;;
55148;SDS011;49539;48.160;11.530;2023-08-12T03:30:20;7.68;;;5.00;;
55148;SDS011;49539;48.160;11.530;2023-08-12T03:32:46;7.90;;;4.32;;
55148;SDS011;49539;48.160;11.530;2023-08-12T03:35:11;7.43;;;4.75;;
55148;SDS011;49539;48.160;11.530;2023-08-12T03:37:36;8.98;;;4.47;;
55148;SDS011;49539;48.160;11.530;2023-08-12T03:40:02;6.22;;;3.97;;
55148;SDS011;49539;48.160;11.530;2023-08-12T03:42:28;7.22;;;4.75;;
55148;SDS011;49539;48.160;11.530;2023-08-12T03:44:54;7.85;;;4.35;;
55148;SDS011;49539;48.160;11.530;2023-08-12T03:47:19;7.35;;;4.45;;
55148;SDS011;49539;48.160;11.530;2023-08-12T03:49:47;7.82;;;4.28;;
55148;SDS011;49539;48.160;11.530;2023-08-12T03:52:12;7.00;;;4.53;;
55148;SDS011;49539;48.160;11.530;2023-08-12T03:54:37;7.13;;;4.50;;
55148;SDS011;49539;48.160;11.530;2023-08-12T03:57:03;7.38;;;4.45;;
55148;SDS011;49539;48.160;11.530;2023-08-12T03:59:28;6.60;;;4.43;;
55148;SDS011;49539;48.160;11.530;2023-08-12T04:01:54;6.93;;;4.63;;
55148;SDS011;49539;48.160;11.530;2023-08-12T04:04:19;7.65;;;4.60;;
55148;SDS011;49539;48.160;11.530;2023-08-12T04:06:44;8.05;;;4.57;;
55148;SDS011;49539;48.160;11.530;2023-08-12T04:09:09;7.83;;;4.43;;
55148;SDS011;49539;48.160;11.530;2023-08-12T04:11:35;7.30;;;4.60;;
55148;SDS011;49539;48.160;11.530;2023-08-12T04:14:00;9.07;;;4.45;;
55148;SDS011;49539;48.160;11.530;2023-08-12T04:16:25;9.35;;;5.13;;
55148;SDS011;49539;48.160;11.530;2023-08-12T04:18:51;7.05;;;4.70;;
55148;SDS011;49539;48.160;11.530;2023-08-12T04:21:16;8.15;;;4.85;;
55148;SDS011;49539;48.160;11.530;2023-08-12T04:23:41;7.17;;;4.40;;
55148;SDS011;49539;48.160;11.530;2023-08-12T04:26:06;7.05;;;4.10;;
55148;SDS011;49539;48.160;11.530;2023-08-12T04:28:32;6.82;;;4.78;;
55148;SDS011;49539;48.160;11.530;2023-08-12T04:30:59;7.65;;;4.45;;
55148;SDS011;49539;48.160;11.530;2023-08-12T04:33:24;7.38;;;4.57;;
55148;SDS011;49539;48.160;11.530;2023-08-12T04:35:49;7.63;;;4.72;;
55148;SDS011;49539;48.160;11.530;2023-08-12T04:38:15;7.03;;;4.18;;
55148;SDS011;49539;48.160;11.530;2023-08-12T04:40:40;7.63;;;4.50;;
55148;SDS011;49539;48.160;11.530;2023-08-12T04:43:09;7.38;;;4.40;;
55148;SDS011;49539;48.160;11.530;2023-08-12T04:45:34;6.80;;;4.20;;
55148;SDS011;49539;48.160;11.530;2023-08-12T04:48:00;7.65;;;4.40;;
55148;SDS011;49539;48.160;11.530;2023-08-12T04:50:25;7.00;;;4.03;;
55148;SDS011;49539;48.160;11.530;2023-08-12T04:52:53;6.88;;;4.60;;
55148;SDS011;49539;48.160;11.530;2023-08-12T04:55:19;7.57;;;4.75;;
55148;SDS011;49539;48.160;11.530;2023-08-12T04:57:44;7.68;;;4.50;;
55148;SDS011;49539;48.160;11.530;2023-08-12T05:00:09;7.15;;;4.45;;
55148;SDS011;49539;48.160;11.530;2023-08-12T05:02:35;7.50;;;4.30;;
55148;SDS011;49539;48.160;11.530;2023-08-12T05:05:00;7.90;;;5.13;;
55148;SDS011;49539;48.160;11.530;2023-08-12T05:07:26;6.97;;;4.15;;
55148;SDS011;49539;48.160;11.530;2023-08-12T05:09:51;6.82;;;4.60;;
55148;SDS011;49539;48.160;11.530;2023-08-12T05:12:17;9.07;;;4.57;;
55148;SDS011;49539;48.160;11.530;2023-08-12T05:14:42;6.55;;;3.80;;
55148;SDS011;49539;48.160;11.530;2023-08-12T05:17:08;7.07;;;4.65;;
55148;SDS011;49539;48.160;11.530;2023-08-12T05:19:33;6.95;;;4.85;;
55148;SDS011;49539;48.160;11.530;2023-08-12T05:21:58;6.80;;;4.38;;
55148;SDS011;49539;48.160;11.530;2023-08-12T05:24:23;6.90;;;4.15;;
55148;SDS011;49539;48.160;11.530;2023-08-12T05:26:49;9.60;;;4.15;;
55148;SDS011;49539;48.160;11.530;2023-08-12T05:29:14;7.28;;;4.15;;
55148;SDS011;49539;48.160;11.530;2023-08-12T05:31:40;6.13;;;4.10;;
55148;SDS011;49539;48.160;11.530;2023-08-12T05:34:05;7.25;;;4.20;;
55148;SDS011;49539;48.160;11.530;2023-08-12T05:36:30;8.38;;;3.67;;
55148;SDS011;49539;48.160;11.530;2023-08-12T05:38:55;8.32;;;4.32;;
55148;SDS011;49539;48.160;11.530;2023-08-12T05:41:21;8.43;;;4.40;;
55148;SDS011;49539;48.160;11.530;2023-08-12T05:43:47;10.52;;;4.20;;
55148;SDS011;49539;48.160;11.530;2023-08-12T05:46:12;6.97;;;4.13;;
55148;SDS011;49539;48.160;11.530;2023-08-12T05:48:38;5.80;;;3.88;;
55148;SDS011;49539;48.160;11.530;2023-08-12T05:51:03;8.40;;;4.43;;
55148;SDS011;49539;48.160;11.530;2023-08-12T05:53:28;8.18;;;4.05;;
55148;SDS011;49539;48.160;11.530;2023-08-12T05:55:53;5.80;;;3.97;;
55148;SDS011;49539;48.160;11.530;2023-08-12T05:58:19;6.28;;;4.18;;
55148;SDS011;49539;48.160;11.530;2023-08-12T06:00:45;6.35;;;4.18;;
55148;SDS011;49539;48.160;11.530;2023-08-12T06:03:11;6.18;;;3.38;;
55148;SDS011;49539;48.160;11.530;2023-08-12T06:05:37;9.93;;;4.10;;
55148;SDS011;49539;48.160;11.530;2023-08-12T06:08:02;4.30;;;3.05;;
55148;SDS011;49539;48.160;11.530;2023-08-12T06:10:27;6.63;;;3.47;;
55148;SDS011;49539;48.160;11.530;2023-08-12T06:12:53;6.78;;;3.25;;
55148;SDS011;49539;48.160;11.530;2023-08-12T06:15:18;4.43;;;3.13;;
55148;SDS011;49539;48.160;11.530;2023-08-12T06:17:45;5.78;;;3.53;;
55148;SDS011;49539;48.160;11.530;2023-08-12T06:20:11;6.23;;;3.40;;
55148;SDS011;49539;48.160;11.530;2023-08-12T06:22:36;6.43;;;3.50;;
55148;SDS011;49539;48.160;11.530;2023-08-12T06:25:02;5.97;;;3.30;;
55148;SDS011;49539;48.160;11.530;2023-08-12T06:27:27;5.28;;;3.08;;
55148;SDS011;49539;48.160;11.530;2023-08-12T06:29:52;5.57;;;2.95;;
55148;SDS011;49539;48.160;11.530;2023-08-12T06:32:17;7.57;;;3.43;;
55148;SDS011;49539;48.160;11.530;2023-08-12T06:34:43;5.85;;;3.45;;
55148;SDS011;49539;48.160;11.530;2023-08-12T06:37:08;6.65;;;3.38;;
55148;SDS011;49539;48.160;11.530;2023-08-12T06:39:33;6.17;;;3.57;;
55148;SDS011;49539;48.160;11.530;2023-08-12T06:41:59;7.13;;;3.53;;
55148;SDS011;49539;48.160;11.530;2023-08-12T06:44:24;5.67;;;3.30;;
55148;SDS011;49539;48.160;11.530;2023-08-12T06:46:49;5.18;;;3.13;;
55148;SDS011;49539;48.160;11.530;2023-08-12T06:49:15;6.70;;;3.38;;
55148;SDS011;49539;48.160;11.530;2023-08-12T06:51:40;6.57;;;3.72;;
55148;SDS011;49539;48.160;11.530;2023-08-12T06:54:05;5.55;;;3.35;;
55148;SDS011;49539;48.160;11.530;2023-08-12T06:56:31;6.35;;;3.30;;
55148;SDS011;49539;48.160;11.530;2023-08-12T06:58:56;6.68;;;3.67;;
55148;SDS011;49539;48.160;11.530;2023-08-12T07:01:21;4.57;;;2.70;;
55148;SDS011;49539;48.160;11.530;2023-08-12T07:03:46;6.20;;;3.43;;
55148;SDS011;49539;48.160;11.530;2023-08-12T07:06:12;5.27;;;3.07;;
55148;SDS011;49539;48.160;11.530;2023-08-12T07:08:37;6.20;;;3.07;;
55148;SDS011;49539;48.160;11.530;2023-08-12T07:11:02;4.18;;;3.00;;
55148;SDS011;49539;48.160;11.530;2023-08-12T07:13:27;5.50;;;2.90;;
55148;SDS011;49539;48.160;11.530;2023-08-12T07:15:53;5.95;;;3.40;;
55148;SDS011;49539;48.160;11.530;2023-08-12T07:18:18;5.23;;;3.43;;
55148;SDS011;49539;48.160;11.530;2023-08-12T07:20:43;4.95;;;3.25;;
55148;SDS011;49539;48.160;11.530;2023-08-12T07:23:09;5.30;;;3.28;;
55148;SDS011;49539;48.160;11.530;2023-08-12T07:25:34;5.05;;;3.00;;
55148;SDS011;49539;48.160;11.530;2023-08-12T07:28:00;6.93;;;3.67;;
55148;SDS011;49539;48.160;11.530;2023-08-12T07:30:25;5.63;;;3.20;;
55148;SDS011;49539;48.160;11.530;2023-08-12T07:32:50;6.07;;;3.20;;
55148;SDS011;49539;48.160;11.530;2023-08-12T07:35:16;6.53;;;3.80;;
55148;SDS011;49539;48.160;11.530;2023-08-12T07:37:41;6.20;;;3.65;;
55148;SDS011;49539;48.160;11.530;2023-08-12T07:40:07;6.53;;;3.23;;
55148;SDS011;49539;48.160;11.530;2023-08-12T07:42:33;6.93;;;3.38;;
55148;SDS011;49539;48.160;11.530;2023-08-12T07:44:59;4.60;;;2.93;;
55148;SDS011;49539;48.160;11.530;2023-08-12T07:47:24;4.73;;;2.90;;
55148;SDS011;49539;48.160;11.530;2023-08-12T07:49:49;6.37;;;3.43;;
55148;SDS011;49539;48.160;11.530;2023-08-12T07:52:15;5.75;;;3.33;;
55148;SDS011;49539;48.160;11.530;2023-08-12T07:54:40;3.33;;;2.30;;
55148;SDS011;49539;48.160;11.530;2023-08-12T07:57:05;4.57;;;2.77;;
55148;SDS011;49539;48.160;11.530;2023-08-12T07:59:31;4.88;;;3.00;;
55148;SDS011;49539;48.160;11.530;2023-08-12T08:01:56;4.00;;;2.67;;
55148;SDS011;49539;48.160;11.530;2023-08-12T08:04:21;4.77;;;3.13;;
55148;SDS011;49539;48.160;11.530;2023-08-12T08:06:47;5.80;;;3.15;;
55148;SDS011;49539;48.160;11.530;2023-08-12T08:09:12;5.70;;;3.20;;
55148;SDS011;49539;48.160;11.530;2023-08-12T08:11:37;6.20;;;3.37;;
55148;SDS011;49539;48.160;11.530;2023-08-12T08:14:02;5.03;;;3.33;;
55148;SDS011;49539;48.160;11.530;2023-08-12T08:16:28;4.95;;;2.88;;
55148;SDS011;49539;48.160;11.530;2023-08-12T08:18:53;10.40;;;2.87;;
55148;SDS011;49539;48.160;11.530;2023-08-12T08:21:18;5.75;;;3.08;;
55148;SDS011;49539;48.160;11.530;2023-08-12T08:23:43;4.37;;;2.90;;
55148;SDS011;49539;48.160;11.530;2023-08-12T08:26:09;6.53;;;3.00;;
55148;SDS011;49539;48.160;11.530;2023-08-12T08:28:34;5.25;;;3.17;;
55148;SDS011;49539;48.160;11.530;2023-08-12T08:31:00;5.47;;;2.97;;
55148;SDS011;49539;48.160;11.530;2023-08-12T08:33:25;4.97;;;3.13;;
55148;SDS011;49539;48.160;11.530;2023-08-12T08:35:51;4.40;;;2.60;;
55148;SDS011;49539;48.160;11.530;2023-08-12T08:38:16;5.45;;;3.15;;
55148;SDS011;49539;48.160;11.530;2023-08-12T08:40:42;4.07;;;2.75;;
55148;SDS011;49539;48.160;11.530;2023-08-12T08:43:07;4.75;;;2.97;;
55148;SDS011;49539;48.160;11.530;2023-08-12T08:45:33;6.65;;;3.00;;
55148;SDS011;49539;48.160;11.530;2023-08-12T08:47:59;6.28;;;3.00;;
55148;SDS011;49539;48.160;11.530;2023-08-12T08:50:25;5.47;;;3.08;;
55148;SDS011;49539;48.160;11.530;2023-08-12T08:52:50;7.38;;;2.70;;
55148;SDS011;49539;48.160;11.530;2023-08-12T08:55:16;4.30;;;2.80;;
55148;SDS011;49539;48.160;11.530;2023-08-12T08:57:42;3.85;;;2.60;;
55148;SDS011;49539;48.160;11.530;2023-08-12T09:00:09;4.95;;;2.38;;
55148;SDS011;49539;48.160;11.530;2023-08-12T09:02:35;3.60;;;2.50;;
55148;SDS011;49539;48.160;11.530;2023-08-12T09:05:01;4.00;;;2.60;;
55148;SDS011;49539;48.160;11.530;2023-08-12T09:07:27;3.17;;;2.17;;
55148;SDS011;49539;48.160;11.530;2023-08-12T09:09:52;3.85;;;2.70;;
55148;SDS011;49539;48.160;11.530;2023-08-12T09:12:19;5.72;;;2.72;;
55148;SDS011;49539;48.160;11.530;2023-08-12T09:14:45;4.32;;;2.78;;
55148;SDS011;49539;48.160;11.530;2023-08-12T09:17:10;4.00;;;2.70;;
55148;SDS011;49539;48.160;11.530;2023-08-12T09:19:36;4.45;;;2.83;;
55148;SDS011;49539;48.160;11.530;2023-08-12T09:22:04;5.70;;;3.10;;
55148;SDS011;49539;48.160;11.530;2023-08-12T09:24:30;5.63;;;2.47;;
55148;SDS011;49539;48.160;11.530;2023-08-12T09:26:55;4.18;;;2.90;;
55148;SDS011;49539;48.160;11.530;2023-08-12T09:29:26;3.60;;;2.50;;
55148;SDS011;49539;48.160;11.530;2023-08-12T09:31:54;6.38;;;3.35;;
55148;SDS011;49539;48.160;11.530;2023-08-12T09:34:19;5.05;;;3.05;;
55148;SDS011;49539;48.160;11.530;2023-08-12T09:36:44;4.13;;;2.65;;
55148;SDS011;49539;48.160;11.530;2023-08-12T09:39:12;5.57;;;2.90;;
55148;SDS011;49539;48.160;11.530;2023-08-12T09:41:38;4.93;;;3.10;;
55148;SDS011;49539;48.160;11.530;2023-08-12T09:44:06;4.15;;;2.97;;
55148;SDS011;49539;48.160;11.530;2023-08-12T09:46:34;4.88;;;2.90;;
55148;SDS011;49539;48.160;11.530;2023-08-12T09:49:00;4.80;;;3.00;;
55148;SDS011;49539;48.160;11.530;2023-08-12T09:51:25;4.47;;;3.00;;
55148;SDS011;49539;48.160;11.530;2023-08-12T09:53:51;5.00;;;3.03;;
55148;SDS011;49539;48.160;11.530;2023-08-12T09:56:19;4.40;;;3.20;;
55148;SDS011;49539;48.160;11.530;2023-08-12T09:58:48;5.45;;;3.42;;
55148;SDS011;49539;48.160;11.530;2023-08-12T10:01:15;5.38;;;3.55;;
55148;SDS011;49539;48.160;11.530;2023-08-12T10:03:43;4.30;;;3.10;;
55148;SDS011;49539;48.160;11.530;2023-08-12T10:06:12;5.35;;;3.35;;
55148;SDS011;49539;48.160;11.530;2023-08-12T10:08:37;5.68;;;3.00;;
55148;SDS011;49539;48.160;11.530;2023-08-12T10:11:03;3.92;;;2.97;;
55148;SDS011;49539;48.160;11.530;2023-08-12T10:13:28;4.50;;;3.03;;
55148;SDS011;49539;48.160;11.530;2023-08-12T10:15:53;5.00;;;3.20;;
55148;SDS011;49539;48.160;11.530;2023-08-12T10:18:19;5.93;;;3.50;;
55148;SDS011;49539;48.160;11.530;2023-08-12T10:20:44;4.35;;;2.65;;
55148;SDS011;49539;48.160;11.530;2023-08-12T10:23:12;3.95;;;2.42;;
55148;SDS011;49539;48.160;11.530;2023-08-12T10:25:38;6.80;;;3.10;;
55148;SDS011;49539;48.160;11.530;2023-08-12T10:28:06;4.05;;;2.90;;
55148;SDS011;49539;48.160;11.530;2023-08-12T10:30:32;6.93;;;2.60;;
55148;SDS011;49539;48.160;11.530;2023-08-12T10:32:58;3.90;;;2.70;;
55148;SDS011;49539;48.160;11.530;2023-08-12T10:35:33;5.82;;;2.75;;
55148;SDS011;49539;48.160;11.530;2023-08-12T10:38:05;3.72;;;2.65;;
55148;SDS011;49539;48.160;11.530;2023-08-12T10:40:30;3.75;;;2.28;;
55148;SDS011;49539;48.160;11.530;2023-08-12T10:42:56;4.38;;;2.38;;
55148;SDS011;49539;48.160;11.530;2023-08-12T10:45:21;3.03;;;2.30;;
55148;SDS011;49539;48.160;11.530;2023-08-12T10:50:32;3.22;;;2.17;;
55148;SDS011;49539;48.160;11.530;2023-08-12T10:52:57;3.03;;;2.13;;
55148;SDS011;49539;48.160;11.530;2023-08-12T10:55:24;3.95;;;2.13;;
55148;SDS011;49539;48.160;11.530;2023-08-12T10:57:50;4.55;;;2.80;;
55148;SDS011;49539;48.160;11.530;2023-08-12T11:00:16;6.38;;;2.40;;
55148;SDS011;49539;48.160;11.530;2023-08-12T11:02:45;2.97;;;2.10;;
55148;SDS011;49539;48.160;11.530;2023-08-12T11:05:11;4.32;;;2.60;;
55148;SDS011;49539;48.160;11.530;2023-08-12T11:07:44;4.20;;;2.40;;
55148;SDS011;49539;48.160;11.530;2023-08-12T11:12:39;4.63;;;2.33;;
55148;SDS011;49539;48.160;11.530;2023-08-12T11:15:04;3.97;;;2.10;;
55148;SDS011;49539;48.160;11.530;2023-08-12T11:17:39;4.63;;;2.45;;
55148;SDS011;49539;48.160;11.530;2023-08-12T11:20:05;3.95;;;2.03;;
55148;SDS011;49539;48.160;11.530;2023-08-12T11:22:41;3.78;;;2.47;;
55148;SDS011;49539;48.160;11.530;2023-08-12T11:25:08;4.38;;;2.15;;
55148;SDS011;49539;48.160;11.530;2023-08-12T11:27:41;3.60;;;2.35;;
55148;SDS011;49539;48.160;11.530;2023-08-12T11:30:07;3.50;;;2.10;;
55148;SDS011;49539;48.160;11.530;2023-08-12T11:32:32;3.50;;;2.30;;
55148;SDS011;49539;48.160;11.530;2023-08-12T11:34:58;4.07;;;2.50;;
55148;SDS011;49539;48.160;11.530;2023-08-12T11:37:23;3.70;;;2.35;;
55148;SDS011;49539;48.160;11.530;2023-08-12T11:39:51;2.67;;;2.05;;
55148;SDS011;49539;48.160;11.530;2023-08-12T11:42:16;3.10;;;2.28;;
55148;SDS011;49539;48.160;11.530;2023-08-12T11:44:41;2.93;;;2.27;;
55148;SDS011;49539;48.160;11.530;2023-08-12T11:47:07;3.63;;;2.22;;
55148;SDS011;49539;48.160;11.530;2023-08-12T11:49:32;5.63;;;2.45;;
55148;SDS011;49539;48.160;11.530;2023-08-12T11:51:58;3.58;;;2.40;;
55148;SDS011;49539;48.160;11.530;2023-08-12T11:54:23;3.45;;;2.55;;
55148;SDS011;49539;48.160;11.530;2023-08-12T11:56:49;3.95;;;2.03;;
55148;SDS011;49539;48.160;11.530;2023-08-12T11:59:14;3.05;;;2.20;;
55148;SDS011;49539;48.160;11.530;2023-08-12T12:01:40;3.08;;;2.00;;
55148;SDS011;49539;48.160;11.530;2023-08-12T12:04:05;3.35;;;2.33;;
55148;SDS011;49539;48.160;11.530;2023-08-12T12:06:31;3.87;;;2.20;;
55148;SDS011;49539;48.160;11.530;2023-08-12T12:09:00;4.05;;;1.90;;
55148;SDS011;49539;48.160;11.530;2023-08-12T12:11:25;3.53;;;2.15;;
55148;SDS011;49539;48.160;11.530;2023-08-12T12:13:51;3.53;;;2.17;;
55148;SDS011;49539;48.160;11.530;2023-08-12T12:16:16;4.27;;;2.23;;
55148;SDS011;49539;48.160;11.530;2023-08-12T12:18:41;6.03;;;2.13;;
55148;SDS011;49539;48.160;11.530;2023-08-12T12:21:06;4.33;;;2.53;;
55148;SDS011;49539;48.160;11.530;2023-08-12T12:23:32;7.53;;;2.33;;
55148;SDS011;49539;48.160;11.530;2023-08-12T12:26:03;5.50;;;2.03;;
55148;SDS011;49539;48.160;11.530;2023-08-12T12:28:28;4.93;;;1.90;;
55148;SDS011;49539;48.160;11.530;2023-08-12T12:30:54;3.70;;;2.20;;
55148;SDS011;49539;48.160;11.530;2023-08-12T12:33:19;3.03;;;2.08;;
55148;SDS011;49539;48.160;11.530;2023-08-12T12:35:45;5.57;;;2.23;;
55148;SDS011;49539;48.160;11.530;2023-08-12T12:38:10;3.95;;;2.40;;
55148;SDS011;49539;48.160;11.530;2023-08-12T12:40:36;6.40;;;2.33;;
55148;SDS011;49539;48.160;11.530;2023-08-12T12:43:03;3.83;;;2.15;;
55148;SDS011;49539;48.160;11.530;2023-08-12T12:45:28;4.90;;;2.15;;
55148;SDS011;49539;48.160;11.530;2023-08-12T12:47:53;3.40;;;2.33;;
55148;SDS011;49539;48.160;11.530;2023-08-12T12:50:19;4.20;;;2.10;;
55148;SDS011;49539;48.160;11.530;2023-08-12T12:52:44;5.18;;;2.00;;
55148;SDS011;49539;48.160;11.530;2023-08-12T12:55:10;4.15;;;2.20;;
55148;SDS011;49539;48.160;11.530;2023-08-12T12:57:36;3.28;;;2.13;;
55148;SDS011;49539;48.160;11.530;2023-08-12T13:00:01;3.57;;;1.73;;
55148;SDS011;49539;48.160;11.530;2023-08-12T13:02:26;3.33;;;2.10;;
55148;SDS011;49539;48.160;11.530;2023-08-12T13:04:52;5.50;;;2.40;;
55148;SDS011;49539;48.160;11.530;2023-08-12T13:07:17;3.58;;;2.22;;
55148;SDS011;49539;48.160;11.530;2023-08-12T13:09:42;4.07;;;2.30;;
55148;SDS011;49539;48.160;11.530;2023-08-12T13:12:08;4.57;;;2.47;;
55148;SDS011;49539;48.160;11.530;2023-08-12T13:14:33;3.47;;;2.03;;
55148;SDS011;49539;48.160;11.530;2023-08-12T13:16:59;3.47;;;1.85;;
55148;SDS011;49539;48.160;11.530;2023-08-12T13:19:24;2.83;;;1.90;;
55148;SDS011;49539;48.160;11.530;2023-08-12T13:21:50;6.82;;;1.70;;
55148;SDS011;49539;48.160;11.530;2023-08-12T13:24:15;2.87;;;1.80;;
55148;SDS011;49539;48.160;11.530;2023-08-12T13:26:40;5.00;;;1.92;;
55148;SDS011;49539;48.160;11.530;2023-08-12T13:29:06;2.95;;;1.90;;
55148;SDS011;49539;48.160;11.530;2023-08-12T13:31:31;2.97;;;1.95;;
55148;SDS011;49539;48.160;11.530;2023-08-12T13:33:57;4.35;;;2.00;;
55148;SDS011;49539;48.160;11.530;2023-08-12T13:36:22;5.10;;;2.28;;
55148;SDS011;49539;48.160;11.530;2023-08-12T13:38:48;2.20;;;1.60;;
55148;SDS011;49539;48.160;11.530;2023-08-12T13:41:13;2.97;;;1.80;;
55148;SDS011;49539;48.160;11.530;2023-08-12T13:43:38;5.33;;;2.37;;
55148;SDS011;49539;48.160;11.530;2023-08-12T13:46:03;3.63;;;2.30;;
55148;SDS011;49539;48.160;11.530;2023-08-12T13:48:29;8.15;;;2.10;;
55148;SDS011;49539;48.160;11.530;2023-08-12T13:50:55;2.87;;;1.87;;
55148;SDS011;49539;48.160;11.530;2023-08-12T13:53:20;2.92;;;1.85;;
55148;SDS011;49539;48.160;11.530;2023-08-12T13:55:45;2.78;;;1.80;;
55148;SDS011;49539;48.160;11.530;2023-08-12T13:58:11;3.72;;;1.80;;
55148;SDS011;49539;48.160;11.530;2023-08-12T14:00:36;4.27;;;2.00;;
55148;SDS011;49539;48.160;11.530;2023-08-12T14:03:01;3.58;;;1.95;;
55148;SDS011;49539;48.160;11.530;2023-08-12T14:05:27;4.88;;;1.98;;
55148;SDS011;49539;48.160;11.530;2023-08-12T14:07:52;5.10;;;2.13;;
55148;SDS011;49539;48.160;11.530;2023-08-12T14:10:18;3.50;;;1.85;;
55148;SDS011;49539;48.160;11.530;2023-08-12T14:12:43;3.13;;;1.88;;
55148;SDS011;49539;48.160;11.530;2023-08-12T14:15:10;2.13;;;1.80;;
55148;SDS011;49539;48.160;11.530;2023-08-12T14:17:35;3.33;;;2.10;;
55148;SDS011;49539;48.160;11.530;2023-08-12T14:20:00;4.07;;;2.00;;
55148;SDS011;49539;48.160;11.530;2023-08-12T14:22:26;5.80;;;2.47;;
55148;SDS011;49539;48.160;11.530;2023-08-12T14:24:51;9.85;;;2.72;;
55148;SDS011;49539;48.160;11.530;2023-08-12T14:27:16;5.95;;;2.28;;
55148;SDS011;49539;48.160;11.530;2023-08-12T14:29:45;3.15;;;1.88;;
55148;SDS011;49539;48.160;11.530;2023-08-12T14:32:10;4.80;;;2.33;;